Kezdőlap
METAR-TAF:

METAR-TAF

Repülőterek :

Clinton Municipal Airport

Clinton, Iowa, Amerikai Egyesült Államok

földrajzi szélesség: 41-50N, földrajzi hosszúság: 090-20W, magasság: 216 m

Jelenlegi meteorológiai megfigyelések

A jelentés 19 perccel ezelõtt készült, 11:15 UTC
Nyugat-északnyugati szél 28 kt széllökések: 32 kt
Hőmérséklet -8°C
Páratartalom 73%
Légköri nyomás 1009 hPa
Látótávolság: 16.1 km
Szakadozott felhőzet 1600 lábon

METAR: KCWI 281115Z AUTO 30028G32KT 10SM BKN016 M08/M12 A2981 RMK AO2 PK WND 31032/1115 FZRANO

Idő: 05:34 (11:34 UTC)


TAF: hiányzik

Meteorológiai megfigyelések és előrejelzések több, mint 4000 repülőtéren (METAR és TAF jelentéseket).

A térképen piros és sárga pontok jelzik az elérhető meteorológiai állomásokat.

Mozgassa az egeret a pont fölött, hogy megjelenjen az állomás neve.

Azután kattintson az időjárási megfigyelések és előrejelzések megtekintéséhez.

A térkép megváltoztatása: kattintson a fekete keresztel jelölt zöld gombra ráközelítéshez, a vonallal jelölt zöld gombra távolításhoz, vagy a zöld nyilakra a szomszédos térképek eléréséhez.


METAR-TAF: